KDOV/DOV METAR and TAF weather

Enter ICAO airport designator
Station Type Date Time Source
KDOV METAR 2021/03/01 21:56 UTC NOAA

KDOV 012156Z AUTO 27010G17KT 10SM FEW200 08/00 A2979 RMK AO2 SLP092 T00810001 $


Station Type Date Time Source
KDOV Decoded METAR 2021/03/01 21:56 UTC NOAA

Dover Air Force Base, DE, United States (KDOV) 39-08N 075-28W
Mar 01, 2021 - 04:56 PM EST / 2021.03.01 2156 UTC
Wind: from the W (270 degrees) at 12 MPH (10 KT) gusting to 20 MPH (17 KT):0
Visibility: 10 mile(s):0
Sky conditions: mostly clear
Temperature: 46.6 F (8.1 C)
Dew Point: 32.2 F (0.1 C)
Relative Humidity: 56%
Pressure (altimeter): 29.79 in. Hg (1008 hPa)
ob: KDOV 012156Z AUTO 27010G17KT 10SM FEW200 08/00 A2979 RMK AO2 SLP092 T00810001
cycle: 22

Station Type Date Time Source
KDOV TAF 2021/03/01 17:58 UTC NOAA

TAF
AMD KDOV 011745Z 0117/0222 22009KT 4800 -SHRA BKN005 510102 QNH2965INS
BECMG 0117/0118 30009KT 9999 NSW BKN008 OVC012 510102 QNH2970INS
TEMPO 0117/0119 OVC020
BECMG 0119/0120 31015G20KT 9999 SCT030 510102 QNH2975INS
BECMG 0123/0124 30012G18KT 9999 SCT050 510102 QNH2988INS
BECMG 0205/0206 31015G20KT 9999 SKC 510002 QNH3006INS
BECMG 0209/0210 31020G30KT 9999 SKC 510003 QNH3006INS
BECMG 0217/0218 31020G25KT 9999 SKC 510003 QNH3020INS TX08/0117Z TN01/0210Z

Example: see airport list